Time;durP1;ratioP1;P1;durP2;ratioP2;P2;SDS_P1;SDS_P2;PMS_P1;PMS_P2;Temp;Humidity;BMP_temperature;BMP_pressure;BME280_temperature;BME280_humidity;BME280_pressure;Samples;Min_cycle;Max_cycle;Signal;HPM_P1;HPM_P2
2023/07/22 00:03:41;;;;;;;10.50;8.07;;;;;14.30;100945.00;;;;10543514;28;20196;-72
2023/07/22 00:08:43;;;;;;;10.57;8.48;;;;;14.50;100943.00;;;;10578910;27;20558;-71
2023/07/22 00:13:44;;;;;;;11.07;7.93;;;;;14.80;100944.00;;;;10572740;27;20216;-75
2023/07/22 00:18:47;;;;;;;13.23;8.65;;;;;15.00;100942.00;;;;10533228;28;20211;-71
2023/07/22 00:23:48;;;;;;;12.55;8.48;;;;;15.10;100941.00;;;;10543747;27;20223;-74
2023/07/22 00:28:49;;;;;;;10.80;8.25;;;;;15.10;100935.00;;;;10559577;27;20200;-73
2023/07/22 00:33:51;;;;;;;11.23;8.70;;;;;15.00;100935.00;;;;10559398;27;20302;-72
2023/07/22 00:38:53;;;;;;;12.27;8.07;;;;;14.90;100931.00;;;;10583511;27;20189;-72
2023/07/22 00:43:54;;;;;;;13.07;8.77;;;;;15.00;100937.00;;;;10557247;27;20208;-72
2023/07/22 00:48:56;;;;;;;10.53;8.43;;;;;15.10;100933.00;;;;10530396;27;20202;-72
2023/07/22 00:53:57;;;;;;;12.45;8.07;;;;;15.20;100935.00;;;;10582517;27;20684;-71
2023/07/22 00:58:59;;;;;;;10.27;8.23;;;;;15.20;100929.00;;;;10564335;27;20200;-72
2023/07/22 01:04:01;;;;;;;10.75;8.52;;;;;15.20;100933.00;;;;10566186;27;20199;-76
2023/07/22 01:15:35;;;;;;;12.32;8.35;;;;;15.10;100921.00;;;;11156432;23;20314;-72
2023/07/22 01:20:37;;;;;;;12.82;8.30;;;;;15.10;100926.00;;;;10130459;29;20203;-71
2023/07/22 01:25:58;;;;;;;13.00;8.15;;;;;15.10;100912.00;;;;10161903;29;20215;-71
2023/07/22 01:31:00;;;;;;;13.05;8.75;;;;;15.10;100917.00;;;;10168111;29;20233;-72
2023/07/22 01:36:02;;;;;;;14.88;8.75;;;;;15.20;100918.00;;;;10187771;28;20204;-72
2023/07/22 01:41:03;;;;;;;14.20;8.98;;;;;15.20;100918.00;;;;10177178;29;20210;-74
2023/07/22 01:46:04;;;;;;;10.85;8.20;;;;;15.00;100919.00;;;;10173925;29;20290;-74
2023/07/22 01:51:06;;;;;;;11.30;8.02;;;;;14.90;100913.00;;;;10170537;29;20206;-73
2023/07/22 01:56:07;;;;;;;16.10;9.18;;;;;14.70;100910.00;;;;10182108;29;20221;-72
2023/07/22 02:01:08;;;;;;;14.65;9.88;;;;;14.50;100906.00;;;;10188616;29;20214;-72
2023/07/22 02:06:10;;;;;;;13.52;9.07;;;;;14.40;100901.00;;;;10182284;29;20238;-75
2023/07/22 02:11:12;;;;;;;12.82;9.63;;;;;14.30;100907.00;;;;10146429;29;20203;-74
2023/07/22 02:16:13;;;;;;;15.83;9.77;;;;;14.20;100902.00;;;;10168923;29;20206;-72
2023/07/22 02:21:15;;;;;;;17.37;10.03;;;;;14.10;100899.00;;;;10165980;29;20203;-74
2023/07/22 02:26:16;;;;;;;17.73;10.30;;;;;14.00;100897.00;;;;10189747;28;20207;-72
2023/07/22 02:31:17;;;;;;;17.07;10.20;;;;;13.90;100902.00;;;;10173502;29;20263;-73
2023/07/22 02:36:19;;;;;;;15.77;10.17;;;;;13.80;100899.00;;;;10169218;29;20269;-74
2023/07/22 02:41:21;;;;;;;16.07;9.70;;;;;13.80;100898.00;;;;10156097;29;20224;-74
2023/07/22 02:46:23;;;;;;;12.43;9.43;;;;;13.80;100886.00;;;;10190441;29;20604;-74
2023/07/22 02:51:24;;;;;;;17.23;10.00;;;;;13.70;100893.00;;;;10207980;28;20225;-76
2023/07/22 02:56:26;;;;;;;17.90;9.67;;;;;13.70;100883.00;;;;10160904;29;20203;-76
2023/07/22 03:01:29;;;;;;;13.97;9.67;;;;;13.60;100891.00;;;;10177575;29;20202;-73
2023/07/22 03:06:31;;;;;;;15.87;9.90;;;;;13.60;100895.00;;;;10198349;28;20199;-75
2023/07/22 03:11:32;;;;;;;16.20;10.43;;;;;13.50;100902.00;;;;10187864;29;20218;-74
2023/07/22 03:16:34;;;;;;;16.50;10.90;;;;;13.50;100903.00;;;;10174330;29;20226;-74
2023/07/22 03:21:35;;;;;;;20.17;11.10;;;;;13.40;100907.00;;;;10171969;29;20230;-74
2023/07/22 03:26:37;;;;;;;17.07;10.53;;;;;13.40;100903.00;;;;10179788;29;20900;-74
2023/07/22 03:31:39;;;;;;;18.03;10.77;;;;;13.30;100896.00;;;;10185326;29;20218;-74
2023/07/22 03:36:40;;;;;;;21.30;11.13;;;;;13.10;100909.00;;;;10164584;29;20213;-73
2023/07/22 03:41:41;;;;;;;18.43;12.13;;;;;13.10;100913.00;;;;10167742;29;20199;-71
2023/07/22 03:46:43;;;;;;;18.30;12.67;;;;;13.00;100910.00;;;;10171888;29;20218;-72
2023/07/22 03:51:44;;;;;;;21.30;11.93;;;;;12.90;100904.00;;;;10165683;29;20248;-76
2023/07/22 03:56:46;;;;;;;22.77;12.50;;;;;12.90;100907.00;;;;10167269;29;20242;-76
2023/07/22 04:01:47;;;;;;;22.87;12.23;;;;;12.90;100911.00;;;;10161492;29;20333;-73
2023/07/22 04:06:48;;;;;;;20.60;12.20;;;;;12.90;100915.00;;;;10176057;29;20220;-72
2023/07/22 04:11:50;;;;;;;22.33;13.40;;;;;12.90;100917.00;;;;10178276;29;20257;-74
2023/07/22 04:16:51;;;;;;;20.53;12.80;;;;;13.00;100923.00;;;;10171547;29;20537;-74
2023/07/22 04:21:54;;;;;;;21.30;12.33;;;;;13.10;100932.00;;;;10183946;29;20304;-77
2023/07/22 04:26:56;;;;;;;22.63;12.77;;;;;13.30;100926.00;;;;10180015;29;20834;-72
2023/07/22 04:32:01;;;;;;;19.47;11.90;;;;;13.60;100917.00;;;;10173530;29;20218;-75
2023/07/22 04:37:03;;;;;;;20.03;12.67;;;;;13.80;100918.00;;;;10187234;29;20608;-71
2023/07/22 04:42:04;;;;;;;18.87;12.50;;;;;14.10;100927.00;;;;10195449;29;20731;-74
2023/07/22 04:47:05;;;;;;;19.50;10.93;;;;;14.30;100923.00;;;;10165702;29;20689;-77
2023/07/22 04:52:07;;;;;;;23.50;11.80;;;;;14.60;100937.00;;;;10174124;29;20202;-75
2023/07/22 04:57:09;;;;;;;19.17;12.50;;;;;14.70;100932.00;;;;10193083;28;20631;-74
2023/07/22 05:02:10;;;;;;;20.40;11.13;;;;;14.70;100926.00;;;;10155387;29;20226;-73
2023/07/22 05:07:12;;;;;;;21.87;10.90;;;;;14.70;100917.00;;;;10171627;29;20211;-73
2023/07/22 05:12:13;;;;;;;18.90;11.60;;;;;14.60;100921.00;;;;10184734;29;20214;-72
2023/07/22 05:17:15;;;;;;;19.63;11.30;;;;;14.70;100933.00;;;;10190236;29;20226;-74
2023/07/22 05:22:16;;;;;;;17.97;11.77;;;;;14.70;100918.00;;;;10174601;29;20220;-74
2023/07/22 05:27:18;;;;;;;21.10;10.47;;;;;14.80;100928.00;;;;10176608;29;20729;-74
2023/07/22 05:32:19;;;;;;;17.33;10.20;;;;;15.10;100930.00;;;;10173988;29;20210;-75
2023/07/22 05:37:34;;;;;;;16.47;10.60;;;;;15.50;100938.00;;;;10199002;28;20210;-72
2023/07/22 05:42:36;;;;;;;20.52;9.98;;;;;15.90;100927.00;;;;10181130;29;20296;-72
2023/07/22 05:47:37;;;;;;;18.90;8.75;;;;;16.40;100929.00;;;;10182947;29;20213;-74
2023/07/22 05:52:39;;;;;;;14.90;9.38;;;;;17.30;100917.00;;;;10178419;29;20218;-75
2023/07/22 05:57:41;;;;;;;14.65;8.40;;;;;18.20;100923.00;;;;10170568;29;20203;-73
2023/07/22 06:02:42;;;;;;;12.35;8.07;;;;;18.50;100911.00;;;;10154909;29;20221;-73
2023/07/22 06:07:43;;;;;;;11.52;7.65;;;;;19.10;100909.00;;;;10187465;29;20202;-75
2023/07/22 06:12:46;;;;;;;11.10;6.90;;;;;19.70;100916.00;;;;10180132;29;21012;-73
2023/07/22 06:17:49;;;;;;;12.90;6.70;;;;;20.20;100914.00;;;;10169826;29;20297;-73
2023/07/22 06:22:50;;;;;;;10.10;6.32;;;;;20.50;100906.00;;;;10166629;29;20870;-75
2023/07/22 06:27:54;;;;;;;13.05;6.13;;;;;20.30;100914.00;;;;10164691;29;20210;-74
2023/07/22 06:32:55;;;;;;;12.57;5.75;;;;;19.80;100915.00;;;;10170810;29;20213;-72
2023/07/22 06:37:56;;;;;;;12.23;6.18;;;;;19.50;100912.00;;;;10193753;29;20566;-73
2023/07/22 06:42:58;;;;;;;14.20;6.03;;;;;19.20;100917.00;;;;10194630;29;20284;-75
2023/07/22 06:47:59;;;;;;;9.05;6.13;;;;;19.20;100915.00;;;;10154313;29;20392;-74
2023/07/22 06:53:00;;;;;;;12.85;6.05;;;;;19.30;100911.00;;;;10185654;29;20213;-77
2023/07/22 06:58:02;;;;;;;9.27;6.05;;;;;19.30;100913.00;;;;10206660;28;20868;-76
2023/07/22 07:03:04;;;;;;;11.13;6.50;;;;;19.40;100903.00;;;;10158037;29;20277;-77
2023/07/22 07:08:05;;;;;;;11.40;6.47;;;;;19.40;100908.00;;;;10157394;29;20206;-76
2023/07/22 07:13:07;;;;;;;11.63;5.65;;;;;19.50;100907.00;;;;10161759;29;20560;-76
2023/07/22 07:18:08;;;;;;;11.70;5.68;;;;;19.60;100895.00;;;;10183866;28;20331;-76
2023/07/22 07:23:10;;;;;;;12.73;4.88;;;;;20.30;100894.00;;;;10157982;29;20680;-76
2023/07/22 07:28:13;;;;;;;10.30;5.55;;;;;20.80;100896.00;;;;10181622;29;20241;-76
2023/07/22 07:33:14;;;;;;;9.95;4.88;;;;;21.30;100905.00;;;;10174659;29;20895;-75
2023/07/22 07:38:15;;;;;;;11.52;5.22;;;;;21.10;100901.00;;;;10164188;29;20293;-72
2023/07/22 07:43:17;;;;;;;13.18;5.90;;;;;21.10;100911.00;;;;10178440;29;20221;-74
2023/07/22 07:48:19;;;;;;;11.88;5.35;;;;;21.00;100912.00;;;;10154830;29;20269;-73
2023/07/22 07:53:20;;;;;;;10.02;5.43;;;;;20.10;100921.00;;;;10157736;29;20211;-74
2023/07/22 07:58:21;;;;;;;10.20;5.05;;;;;19.30;100923.00;;;;10170781;28;20203;-73
2023/07/22 08:03:23;;;;;;;10.43;5.55;;;;;18.80;100910.00;;;;10167470;28;20267;-74
2023/07/22 08:08:25;;;;;;;6.22;4.88;;;;;18.90;100907.00;;;;10153504;29;20207;-73
2023/07/22 08:13:27;;;;;;;12.25;5.00;;;;;19.80;100908.00;;;;10164652;29;20319;-72
2023/07/22 08:18:29;;;;;;;11.55;4.55;;;;;20.90;100896.00;;;;10161410;29;20858;-73
2023/07/22 08:23:32;;;;;;;10.63;4.50;;;;;21.60;100894.00;;;;10165705;29;20814;-75
2023/07/22 08:28:34;;;;;;;10.48;4.35;;;;;22.10;100900.00;;;;10164411;29;20202;-77
2023/07/22 08:33:35;;;;;;;9.93;3.47;;;;;22.40;100902.00;;;;10124574;29;20613;-75
2023/07/22 08:38:42;;;;;;;8.68;3.65;;;;;21.90;100897.00;;;;10139394;29;20262;-78
2023/07/22 08:43:47;;;;;;;5.93;3.10;;;;;21.80;100907.00;;;;10167134;28;20214;-75
2023/07/22 08:48:53;;;;;;;8.10;3.58;;;;;22.60;100897.00;;;;10142471;29;20628;-75
2023/07/22 08:53:59;;;;;;;5.90;2.95;;;;;22.90;100898.00;;;;10149542;29;20222;-76
2023/07/22 08:59:14;;;;;;;7.13;3.40;;;;;23.10;100911.00;;;;10169184;28;20221;-79
2023/07/22 09:04:15;;;;;;;5.88;3.08;;;;;23.20;100900.00;;;;10150150;29;20215;-75
2023/07/22 09:09:17;;;;;;;4.30;2.88;;;;;23.60;100902.00;;;;10154343;29;20206;-76
2023/07/22 09:14:19;;;;;;;6.93;2.85;;;;;24.00;100895.00;;;;10142772;29;20227;-75
2023/07/22 09:19:37;;;;;;;6.68;3.03;;;;;24.80;100892.00;;;;10149483;29;20207;-74
2023/07/22 09:24:38;;;;;;;4.28;2.50;;;;;25.00;100903.00;;;;10118042;29;20233;-78
2023/07/22 09:29:40;;;;;;;4.90;2.53;;;;;26.30;100896.00;;;;10139500;29;20786;-74
2023/07/22 09:34:57;;;;;;;5.63;2.55;;;;;27.30;100888.00;;;;10157142;29;20211;-76
2023/07/22 09:39:58;;;;;;;5.40;2.75;;;;;28.10;100890.00;;;;10149773;29;20347;-76
2023/07/22 09:45:00;;;;;;;4.22;1.98;;;;;29.00;100875.00;;;;10138326;29;20233;-78
2023/07/22 09:50:01;;;;;;;6.28;2.28;;;;;29.10;100880.00;;;;10149319;29;20794;-77
2023/07/22 09:55:03;;;;;;;5.72;1.95;;;;;29.20;100871.00;;;;10142778;29;20195;-76
2023/07/22 10:00:08;;;;;;;7.05;2.15;;;;;29.30;100864.00;;;;10154977;29;20278;-77
2023/07/22 10:05:18;;;;;;;4.28;1.98;;;;;28.90;100877.00;;;;10155085;29;20209;-75
2023/07/22 10:10:30;;;;;;;3.55;2.00;;;;;28.80;100862.00;;;;10152608;29;20270;-76
2023/07/22 10:15:34;;;;;;;3.08;2.10;;;;;29.50;100874.00;;;;10164986;29;20272;-76
2023/07/22 10:20:36;;;;;;;2.50;1.70;;;;;29.40;100872.00;;;;10156011;29;20312;-75
2023/07/22 10:25:39;;;;;;;3.13;1.48;;;;;29.10;100867.00;;;;10144868;29;20218;-76
2023/07/22 10:30:40;;;;;;;2.58;1.63;;;;;29.60;100854.00;;;;10164609;29;20679;-73
2023/07/22 10:35:44;;;;;;;2.75;2.10;;;;;29.10;100852.00;;;;10166982;29;20214;-75
2023/07/22 10:40:55;;;;;;;4.38;2.15;;;;;28.90;100845.00;;;;10171559;28;20742;-78
2023/07/22 10:45:59;;;;;;;2.47;1.60;;;;;30.00;100849.00;;;;10158652;29;20249;-78
2023/07/22 10:51:12;;;;;;;2.50;1.40;;;;;30.70;100850.00;;;;10153377;29;20294;-76
2023/07/22 10:56:18;;;;;;;2.40;1.55;;;;;30.40;100833.00;;;;10152816;29;20222;-76
2023/07/22 11:01:25;;;;;;;3.78;1.52;;;;;30.50;100839.00;;;;10154745;29;20274;-79
2023/07/22 11:06:27;;;;;;;1.67;1.30;;;;;31.50;100826.00;;;;10148168;29;20453;-75
2023/07/22 11:11:40;;;;;;;6.13;1.65;;;;;31.90;100844.00;;;;10164097;29;20254;-75
2023/07/22 11:16:44;;;;;;;3.83;1.80;;;;;30.70;100849.00;;;;10180858;29;20214;-76
2023/07/22 11:21:47;;;;;;;2.65;1.65;;;;;29.10;100835.00;;;;10169544;29;20714;-75
2023/07/22 11:26:49;;;;;;;2.53;1.60;;;;;28.00;100839.00;;;;10188595;29;20209;-75
2023/07/22 11:31:51;;;;;;;2.97;1.55;;;;;28.10;100808.00;;;;10191963;29;20237;-75
2023/07/22 11:36:54;;;;;;;2.80;1.67;;;;;27.90;100825.00;;;;10163021;29;20682;-75
2023/07/22 11:41:55;;;;;;;3.22;1.85;;;;;28.20;100811.00;;;;10189566;29;20210;-76
2023/07/22 11:47:05;;;;;;;3.42;1.77;;;;;28.90;100798.00;;;;10168604;29;20672;-79
2023/07/22 11:52:11;;;;;;;2.45;1.88;;;;;28.00;100799.00;;;;10157350;29;20787;-75
2023/07/22 11:57:17;;;;;;;4.97;1.80;;;;;29.30;100797.00;;;;10192804;29;20252;-76
2023/07/22 12:02:26;;;;;;;4.38;1.85;;;;;30.30;100790.00;;;;10159439;29;20266;-74
2023/07/22 12:07:35;;;;;;;2.83;1.75;;;;;29.30;100801.00;;;;10152327;29;20282;-75
2023/07/22 12:12:49;;;;;;;3.45;1.90;;;;;28.70;100793.00;;;;10142983;29;20223;-75
2023/07/22 12:18:10;;;;;;;2.53;1.88;;;;;28.80;100787.00;;;;10157685;29;20242;-73
2023/07/22 12:23:11;;;;;;;3.67;1.85;;;;;28.90;100796.00;;;;10146989;29;20213;-76
2023/07/22 12:28:12;;;;;;;2.45;1.67;;;;;28.90;100789.00;;;;10144502;29;20624;-76
2023/07/22 12:33:14;;;;;;;2.55;1.77;;;;;28.70;100789.00;;;;10144853;29;20219;-76
2023/07/22 12:38:16;;;;;;;3.42;1.80;;;;;29.80;100784.00;;;;10144494;29;20285;-76
2023/07/22 12:43:17;;;;;;;2.70;1.60;;;;;28.90;100778.00;;;;10157192;28;20214;-75
2023/07/22 12:48:18;;;;;;;6.63;1.38;;;;;29.70;100781.00;;;;10164021;28;20221;-79
2023/07/22 12:53:21;;;;;;;5.10;1.77;;;;;30.10;100770.00;;;;10141939;29;20218;-78
2023/07/22 12:58:22;;;;;;;3.08;1.45;;;;;30.40;100772.00;;;;10146911;29;20202;-78
2023/07/22 13:03:23;;;;;;;2.25;1.30;;;;;31.00;100755.00;;;;10168027;29;20747;-78
2023/07/22 13:08:25;;;;;;;2.25;1.75;;;;;30.40;100757.00;;;;10149541;29;20907;-78
2023/07/22 13:13:26;;;;;;;2.65;1.63;;;;;30.00;100759.00;;;;10150171;29;20237;-79
2023/07/22 13:18:28;;;;;;;5.05;1.70;;;;;28.40;100770.00;;;;10153995;29;20202;-80
2023/07/22 13:23:29;;;;;;;8.00;1.80;;;;;27.90;100763.00;;;;10161813;29;20225;-77
2023/07/22 13:28:30;;;;;;;10.75;2.13;;;;;27.90;100755.00;;;;10151210;29;20509;-77
2023/07/22 13:33:32;;;;;;;2.75;1.50;;;;;27.70;100753.00;;;;10156335;29;20220;-75
2023/07/22 13:38:33;;;;;;;3.30;1.40;;;;;27.70;100747.00;;;;10157239;29;20669;-77
2023/07/22 13:43:35;;;;;;;2.10;1.50;;;;;27.80;100756.00;;;;10155904;29;20912;-78
2023/07/22 13:48:36;;;;;;;2.30;1.58;;;;;27.80;100757.00;;;;10166867;28;20202;-76
2023/07/22 13:53:37;;;;;;;2.85;1.88;;;;;27.20;100758.00;;;;10154575;29;20249;-78
2023/07/22 13:58:38;;;;;;;3.67;1.77;;;;;26.00;100754.00;;;;10162211;29;20211;-76
2023/07/22 14:03:40;;;;;;;4.93;2.05;;;;;25.10;100757.00;;;;10153968;29;20960;-73
2023/07/22 14:08:41;;;;;;;4.53;1.95;;;;;24.20;100756.00;;;;10171092;29;20207;-74
2023/07/22 14:13:43;;;;;;;4.40;1.60;;;;;23.40;100755.00;;;;10176498;29;20615;-78
2023/07/22 14:18:44;;;;;;;4.50;1.80;;;;;23.10;100762.00;;;;10160316;28;20206;-78
2023/07/22 14:23:47;;;;;;;3.53;1.90;;;;;22.90;100761.00;;;;10151837;29;20195;-74
2023/07/22 14:28:48;;;;;;;3.88;2.08;;;;;22.60;100751.00;;;;10153502;29;20198;-75
2023/07/22 14:33:50;;;;;;;4.90;1.95;;;;;22.40;100750.00;;;;10136714;29;20257;-75
2023/07/22 14:38:51;;;;;;;2.55;1.90;;;;;22.50;100740.00;;;;10148518;29;20211;-75
2023/07/22 14:43:53;;;;;;;2.95;2.00;;;;;22.70;100743.00;;;;10156168;28;20796;-77
2023/07/22 14:48:54;;;;;;;5.82;2.05;;;;;23.40;100736.00;;;;10168918;29;20214;-74
2023/07/22 14:53:55;;;;;;;4.50;1.65;;;;;24.60;100727.00;;;;10152289;29;20218;-75
2023/07/22 14:58:57;;;;;;;3.13;1.98;;;;;24.80;100737.00;;;;10143473;29;20207;-74
2023/07/22 15:03:58;;;;;;;2.65;1.58;;;;;24.90;100727.00;;;;10153799;29;20206;-75
2023/07/22 15:09:01;;;;;;;3.17;1.52;;;;;25.50;100742.00;;;;10180160;29;20209;-78
2023/07/22 15:14:06;;;;;;;3.25;1.70;;;;;25.70;100738.00;;;;10140367;29;20314;-78
2023/07/22 15:19:07;;;;;;;5.35;1.88;;;;;25.90;100733.00;;;;10153429;29;20211;-75
2023/07/22 15:24:09;;;;;;;5.93;1.52;;;;;25.70;100735.00;;;;10153241;29;20352;-77
2023/07/22 15:29:11;;;;;;;9.25;8.02;;;;;25.50;100728.00;;;;10182212;28;20210;-75
2023/07/22 15:34:12;;;;;;;5.50;2.85;;;;;25.00;100736.00;;;;10184982;29;20979;-74
2023/07/22 15:39:13;;;;;;;3.33;1.77;;;;;24.70;100733.00;;;;10187161;29;20206;-73
2023/07/22 15:44:15;;;;;;;21.33;18.10;;;;;24.20;100727.00;;;;10173514;29;20195;-74
2023/07/22 15:49:16;;;;;;;44.22;31.98;;;;;24.10;100716.00;;;;10187594;29;20245;-74
2023/07/22 15:54:19;;;;;;;3.85;3.38;;;;;24.20;100701.00;;;;10169713;29;20531;-73
2023/07/22 15:59:20;;;;;;;2.88;2.00;;;;;23.90;100711.00;;;;10147128;29;20203;-76
2023/07/22 16:04:22;;;;;;;16.23;14.50;;;;;23.70;100701.00;;;;10139157;29;20420;-75
2023/07/22 16:09:23;;;;;;;31.58;25.58;;;;;23.60;100706.00;;;;10152459;29;20282;-78
2023/07/22 16:14:24;;;;;;;4.30;2.50;;;;;23.20;100696.00;;;;10152027;29;20215;-75
2023/07/22 16:19:26;;;;;;;8.50;7.57;;;;;22.80;100690.00;;;;10150544;29;20507;-73
2023/07/22 16:24:27;;;;;;;3.92;2.10;;;;;22.50;100686.00;;;;10141817;29;20226;-75
2023/07/22 16:29:29;;;;;;;4.57;2.42;;;;;22.50;100681.00;;;;10138481;29;20210;-75
2023/07/22 16:34:30;;;;;;;4.30;2.22;;;;;22.70;100674.00;;;;10155821;29;20277;-75
2023/07/22 16:39:31;;;;;;;5.30;2.47;;;;;22.90;100673.00;;;;10160667;29;20285;-75
2023/07/22 16:44:33;;;;;;;2.55;1.75;;;;;23.30;100677.00;;;;10160834;29;20199;-75
2023/07/22 16:49:34;;;;;;;3.55;1.95;;;;;23.30;100672.00;;;;10143452;29;20484;-78
2023/07/22 16:54:36;;;;;;;3.58;2.35;;;;;23.30;100670.00;;;;10149089;29;20242;-78
2023/07/22 16:59:37;;;;;;;3.78;2.15;;;;;23.10;100663.00;;;;10146644;29;20210;-78
2023/07/22 17:04:38;;;;;;;2.78;1.83;;;;;22.60;100668.00;;;;10154288;29;20712;-78
2023/07/22 17:09:39;;;;;;;5.70;2.33;;;;;22.40;100656.00;;;;10155669;29;20437;-78
2023/07/22 17:14:41;;;;;;;10.05;6.60;;;;;22.40;100643.00;;;;10155570;29;20912;-78
2023/07/22 17:19:42;;;;;;;6.22;2.33;;;;;22.60;100638.00;;;;10147270;29;20778;-77
2023/07/22 17:24:43;;;;;;;5.45;2.95;;;;;22.50;100635.00;;;;10148331;28;20221;-77
2023/07/22 17:29:45;;;;;;;4.20;2.10;;;;;22.30;100636.00;;;;10148336;29;20277;-75
2023/07/22 17:34:47;;;;;;;4.68;2.53;;;;;22.20;100624.00;;;;10157424;29;20305;-76
2023/07/22 17:39:48;;;;;;;7.32;2.60;;;;;22.00;100623.00;;;;10150038;29;20211;-76
2023/07/22 17:44:50;;;;;;;6.22;2.80;;;;;21.80;100615.00;;;;10172200;28;20307;-75
2023/07/22 17:49:51;;;;;;;5.65;3.38;;;;;21.70;100610.00;;;;10157358;29;20679;-78
2023/07/22 17:54:52;;;;;;;8.38;4.53;;;;;21.70;100611.00;;;;10155958;29;20225;-78
2023/07/22 17:59:54;;;;;;;8.75;4.07;;;;;21.80;100602.00;;;;10146342;29;20214;-77
2023/07/22 18:04:55;;;;;;;6.22;3.20;;;;;21.90;100606.00;;;;10168095;29;20211;-77
2023/07/22 18:09:56;;;;;;;3.17;2.38;;;;;21.90;100593.00;;;;10170666;28;20450;-78
2023/07/22 18:14:58;;;;;;;4.50;2.75;;;;;21.80;100589.00;;;;10150830;29;20290;-78
2023/07/22 18:19:59;;;;;;;3.53;2.50;;;;;21.70;100587.00;;;;10152671;29;21025;-77
2023/07/22 18:25:01;;;;;;;7.10;3.05;;;;;21.50;100582.00;;;;10156214;29;20731;-77
2023/07/22 18:30:04;;;;;;;5.25;2.90;;;;;21.40;100578.00;;;;10149895;29;20207;-78
2023/07/22 18:35:06;;;;;;;5.70;2.42;;;;;21.20;100576.00;;;;10158047;29;20233;-77
2023/07/22 18:40:08;;;;;;;4.32;2.90;;;;;21.10;100574.00;;;;10164708;28;20557;-77
2023/07/22 18:45:10;;;;;;;7.40;2.92;;;;;21.00;100566.00;;;;10158841;28;20233;-77
2023/07/22 18:50:12;;;;;;;5.35;2.58;;;;;20.80;100577.00;;;;10149729;29;20211;-77
2023/07/22 18:55:13;;;;;;;5.68;2.53;;;;;20.70;100577.00;;;;10148655;29;20218;-77
2023/07/22 19:00:16;;;;;;;4.88;2.92;;;;;20.70;100564.00;;;;10158431;29;20199;-78
2023/07/22 19:05:18;;;;;;;4.70;2.67;;;;;20.60;100563.00;;;;10160690;29;20289;-76
2023/07/22 19:10:19;;;;;;;6.50;2.88;;;;;20.50;100561.00;;;;10163157;29;20211;-76
2023/07/22 19:15:21;;;;;;;6.82;2.70;;;;;20.40;100547.00;;;;10170699;28;20221;-76
2023/07/22 19:20:22;;;;;;;4.78;2.80;;;;;20.30;100558.00;;;;10142186;29;20206;-77
2023/07/22 19:25:23;;;;;;;7.45;2.95;;;;;20.20;100552.00;;;;10164394;29;20691;-77
2023/07/22 19:30:25;;;;;;;6.50;2.40;;;;;20.10;100548.00;;;;10163234;29;20262;-76
2023/07/22 19:35:26;;;;;;;7.63;2.85;;;;;20.00;100559.00;;;;10164095;29;20230;-76
2023/07/22 19:40:31;;;;;;;6.15;2.80;;;;;19.90;100558.00;;;;10166817;29;20195;-76
2023/07/22 19:45:32;;;;;;;5.93;3.78;;;;;19.80;100557.00;;;;10159767;29;20206;-75
2023/07/22 19:50:36;;;;;;;7.70;3.05;;;;;19.70;100557.00;;;;10156503;29;20338;-76
2023/07/22 19:55:37;;;;;;;6.80;2.97;;;;;19.50;100561.00;;;;10165496;28;21057;-78
2023/07/22 20:00:38;;;;;;;5.90;2.50;;;;;19.20;100563.00;;;;10136029;29;20211;-77
2023/07/22 20:05:41;;;;;;;7.15;2.60;;;;;19.10;100573.00;;;;10168720;28;20675;-77
2023/07/22 20:10:42;;;;;;;4.20;2.22;;;;;19.00;100580.00;;;;10158061;28;20774;-76
2023/07/22 20:15:44;;;;;;;3.92;2.60;;;;;18.90;100587.00;;;;10156450;29;20308;-76
2023/07/22 20:20:45;;;;;;;4.43;2.53;;;;;18.80;100588.00;;;;10143225;29;20215;-76
2023/07/22 20:25:47;;;;;;;10.50;2.42;;;;;18.60;100588.00;;;;10159177;29;20285;-76
2023/07/22 20:30:49;;;;;;;5.85;2.55;;;;;18.30;100591.00;;;;10163909;29;20199;-78
2023/07/22 20:35:54;;;;;;;4.55;2.88;;;;;18.00;100591.00;;;;10159140;29;20222;-78
2023/07/22 20:40:55;;;;;;;9.68;2.97;;;;;17.90;100589.00;;;;10171819;28;20770;-78
2023/07/22 20:46:04;;;;;;;6.85;2.97;;;;;17.80;100573.00;;;;10162663;28;20209;-77
2023/07/22 20:51:05;;;;;;;6.32;3.13;;;;;17.80;100577.00;;;;10150934;29;20883;-77
2023/07/22 20:56:07;;;;;;;3.83;2.63;;;;;17.80;100570.00;;;;10163929;28;20210;-77
2023/07/22 21:01:08;;;;;;;5.95;3.17;;;;;17.70;100566.00;;;;10176799;28;20205;-77
2023/07/22 21:06:09;;;;;;;7.47;3.22;;;;;17.70;100569.00;;;;10156706;29;20214;-76
2023/07/22 21:11:11;;;;;;;3.83;2.60;;;;;17.60;100567.00;;;;10160996;29;20728;-77
2023/07/22 21:16:12;;;;;;;5.93;3.10;;;;;17.60;100557.00;;;;10157749;29;20233;-77
2023/07/22 21:21:16;;;;;;;4.82;3.42;;;;;17.60;100551.00;;;;10159252;29;20591;-76
2023/07/22 21:26:17;;;;;;;7.05;3.90;;;;;17.60;100555.00;;;;10157676;29;20211;-77
2023/07/22 21:31:19;;;;;;;4.38;2.63;;;;;17.60;100546.00;;;;10161895;28;20210;-77
2023/07/22 21:36:21;;;;;;;8.90;2.88;;;;;17.60;100551.00;;;;10157959;29;20310;-77
2023/07/22 21:41:22;;;;;;;6.45;3.88;;;;;17.50;100541.00;;;;10151972;29;20273;-75
2023/07/22 21:46:23;;;;;;;6.35;3.55;;;;;17.40;100529.00;;;;10160255;29;20227;-75
2023/07/22 21:51:25;;;;;;;7.05;3.70;;;;;17.40;100526.00;;;;10170877;29;20206;-74
2023/07/22 21:56:27;;;;;;;7.88;3.60;;;;;17.30;100515.00;;;;10165820;29;20776;-75
2023/07/22 22:01:28;;;;;;;5.70;3.72;;;;;17.20;100509.00;;;;10173854;29;20205;-74
2023/07/22 22:06:30;;;;;;;6.75;3.80;;;;;17.20;100506.00;;;;10169205;28;20202;-72
2023/07/22 22:11:32;;;;;;;4.78;3.45;;;;;17.10;100504.00;;;;10172999;29;20223;-74
2023/07/22 22:16:34;;;;;;;5.78;3.38;;;;;17.10;100495.00;;;;10186688;29;20215;-77
2023/07/22 22:21:35;;;;;;;3.80;3.15;;;;;17.00;100493.00;;;;10164759;29;20211;-76
2023/07/22 22:26:36;;;;;;;6.20;3.47;;;;;17.00;100490.00;;;;10175342;29;20207;-75
2023/07/22 22:31:38;;;;;;;8.15;3.50;;;;;16.90;100482.00;;;;10164527;29;20219;-75
2023/07/22 22:36:39;;;;;;;10.63;3.67;;;;;17.00;100484.00;;;;10156270;29;20680;-72
2023/07/22 22:41:41;;;;;;;5.68;3.50;;;;;17.00;100478.00;;;;10171540;29;20217;-72
2023/07/22 22:46:43;;;;;;;5.65;3.38;;;;;17.00;100470.00;;;;10169270;29;20218;-74
2023/07/22 22:51:45;;;;;;;6.57;3.90;;;;;17.00;100468.00;;;;10185406;29;20203;-73
2023/07/22 22:56:47;;;;;;;8.15;3.70;;;;;17.00;100467.00;;;;10167567;29;20219;-73
2023/07/22 23:01:48;;;;;;;5.57;3.50;;;;;17.00;100457.00;;;;10180143;29;20281;-75
2023/07/22 23:06:49;;;;;;;5.55;3.38;;;;;16.90;100454.00;;;;10153792;29;20206;-73
2023/07/22 23:11:52;;;;;;;5.70;3.38;;;;;16.90;100441.00;;;;10156166;29;20616;-75
2023/07/22 23:16:53;;;;;;;4.93;3.15;;;;;16.90;100441.00;;;;10149712;29;20236;-74
2023/07/22 23:21:55;;;;;;;7.05;3.47;;;;;16.80;100435.00;;;;10168875;29;20199;-75
2023/07/22 23:26:56;;;;;;;6.75;4.00;;;;;16.80;100438.00;;;;10167301;29;20191;-77
2023/07/22 23:31:58;;;;;;;5.70;3.50;;;;;16.80;100431.00;;;;10165948;29;20289;-76
2023/07/22 23:36:59;;;;;;;4.57;2.88;;;;;16.70;100428.00;;;;10161846;29;20654;-77
2023/07/22 23:42:01;;;;;;;4.85;3.10;;;;;16.70;100417.00;;;;10166188;29;20249;-78
2023/07/22 23:47:03;;;;;;;5.25;3.72;;;;;16.60;100414.00;;;;10150048;29;20539;-78
2023/07/22 23:52:04;;;;;;;8.43;3.42;;;;;16.60;100411.00;;;;10171232;29;20286;-77
2023/07/22 23:57:06;;;;;;;6.70;3.72;;;;;16.60;100403.00;;;;10166513;29;20249;-76
